sensor_id;sensor_type;location;lat;lon;timestamp;temperature;humidity
31639;DHT22;18248;51.522;7.020;2022-10-28T00:03:00;19.80;99.90
31639;DHT22;18248;51.522;7.020;2022-10-28T00:06:03;19.80;99.90
31639;DHT22;18248;51.522;7.020;2022-10-28T00:09:04;19.90;99.90
31639;DHT22;18248;51.522;7.020;2022-10-28T00:12:02;19.90;99.90
31639;DHT22;18248;51.522;7.020;2022-10-28T00:15:02;19.90;99.90
31639;DHT22;18248;51.522;7.020;2022-10-28T00:18:01;19.90;99.90
31639;DHT22;18248;51.522;7.020;2022-10-28T00:21:20;20.00;99.90
31639;DHT22;18248;51.522;7.020;2022-10-28T00:24:19;20.00;99.90
31639;DHT22;18248;51.522;7.020;2022-10-28T00:27:18;20.10;99.90
31639;DHT22;18248;51.522;7.020;2022-10-28T00:30:17;20.10;99.90
31639;DHT22;18248;51.522;7.020;2022-10-28T00:33:15;20.10;99.90
31639;DHT22;18248;51.522;7.020;2022-10-28T00:36:18;20.20;99.90
31639;DHT22;18248;51.522;7.020;2022-10-28T00:39:23;20.20;99.90
31639;DHT22;18248;51.522;7.020;2022-10-28T00:42:21;20.30;99.90
31639;DHT22;18248;51.522;7.020;2022-10-28T00:45:20;20.30;99.90
31639;DHT22;18248;51.522;7.020;2022-10-28T00:48:19;20.30;99.90
31639;DHT22;18248;51.522;7.020;2022-10-28T00:51:21;20.30;99.90
31639;DHT22;18248;51.522;7.020;2022-10-28T00:54:21;20.30;99.90
31639;DHT22;18248;51.522;7.020;2022-10-28T00:57:24;20.30;99.90
31639;DHT22;18248;51.522;7.020;2022-10-28T01:00:26;20.40;99.90
31639;DHT22;18248;51.522;7.020;2022-10-28T01:03:24;20.40;99.90
31639;DHT22;18248;51.522;7.020;2022-10-28T01:06:25;20.40;99.90
31639;DHT22;18248;51.522;7.020;2022-10-28T01:09:24;20.40;99.90
31639;DHT22;18248;51.522;7.020;2022-10-28T01:12:37;20.40;99.90
31639;DHT22;18248;51.522;7.020;2022-10-28T01:15:59;20.40;99.90
31639;DHT22;18248;51.522;7.020;2022-10-28T01:29:36;20.30;99.90
31639;DHT22;18248;51.522;7.020;2022-10-28T01:36:14;20.30;99.90
31639;DHT22;18248;51.522;7.020;2022-10-28T01:39:48;20.30;99.90
31639;DHT22;18248;51.522;7.020;2022-10-28T01:43:05;20.20;99.90
31639;DHT22;18248;51.522;7.020;2022-10-28T01:46:12;20.10;99.90
31639;DHT22;18248;51.522;7.020;2022-10-28T01:52:22;20.00;99.90
31639;DHT22;18248;51.522;7.020;2022-10-28T01:55:26;19.90;99.90
31639;DHT22;18248;51.522;7.020;2022-10-28T01:58:26;19.80;99.90
31639;DHT22;18248;51.522;7.020;2022-10-28T02:01:28;19.90;99.90
31639;DHT22;18248;51.522;7.020;2022-10-28T02:04:27;20.00;99.90
31639;DHT22;18248;51.522;7.020;2022-10-28T02:07:26;20.00;99.90
31639;DHT22;18248;51.522;7.020;2022-10-28T02:10:30;20.00;99.90
31639;DHT22;18248;51.522;7.020;2022-10-28T02:13:45;20.10;99.90
31639;DHT22;18248;51.522;7.020;2022-10-28T02:16:49;20.10;99.90
31639;DHT22;18248;51.522;7.020;2022-10-28T02:23:10;20.20;99.90
31639;DHT22;18248;51.522;7.020;2022-10-28T02:26:25;20.20;99.90
31639;DHT22;18248;51.522;7.020;2022-10-28T02:29:42;20.20;99.90
31639;DHT22;18248;51.522;7.020;2022-10-28T02:32:48;20.20;99.90
31639;DHT22;18248;51.522;7.020;2022-10-28T02:35:51;20.20;99.90
31639;DHT22;18248;51.522;7.020;2022-10-28T02:38:52;20.20;99.90
31639;DHT22;18248;51.522;7.020;2022-10-28T02:42:03;20.10;99.90
31639;DHT22;18248;51.522;7.020;2022-10-28T02:45:09;20.10;99.90
31639;DHT22;18248;51.522;7.020;2022-10-28T02:48:25;20.00;99.90
31639;DHT22;18248;51.522;7.020;2022-10-28T02:51:34;20.00;99.90
31639;DHT22;18248;51.522;7.020;2022-10-28T02:54:41;20.00;99.90
31639;DHT22;18248;51.522;7.020;2022-10-28T02:57:43;19.80;99.90
31639;DHT22;18248;51.522;7.020;2022-10-28T03:00:47;19.80;99.90
31639;DHT22;18248;51.522;7.020;2022-10-28T03:03:46;19.80;99.90
31639;DHT22;18248;51.522;7.020;2022-10-28T03:06:45;19.80;99.90
31639;DHT22;18248;51.522;7.020;2022-10-28T03:09:44;19.80;99.90
31639;DHT22;18248;51.522;7.020;2022-10-28T03:12:42;19.70;99.90
31639;DHT22;18248;51.522;7.020;2022-10-28T03:15:41;19.60;99.90
31639;DHT22;18248;51.522;7.020;2022-10-28T03:18:41;19.60;99.90
31639;DHT22;18248;51.522;7.020;2022-10-28T03:21:40;19.50;99.90
31639;DHT22;18248;51.522;7.020;2022-10-28T03:24:38;19.50;99.90
31639;DHT22;18248;51.522;7.020;2022-10-28T03:27:40;19.50;99.90
31639;DHT22;18248;51.522;7.020;2022-10-28T03:30:38;19.50;99.90
31639;DHT22;18248;51.522;7.020;2022-10-28T03:33:37;19.40;99.90
31639;DHT22;18248;51.522;7.020;2022-10-28T03:36:35;19.40;99.90
31639;DHT22;18248;51.522;7.020;2022-10-28T03:39:34;19.40;99.90
31639;DHT22;18248;51.522;7.020;2022-10-28T03:42:34;19.40;99.90
31639;DHT22;18248;51.522;7.020;2022-10-28T03:45:33;19.30;99.90
31639;DHT22;18248;51.522;7.020;2022-10-28T03:48:31;19.20;99.90
31639;DHT22;18248;51.522;7.020;2022-10-28T03:51:30;19.10;99.90
31639;DHT22;18248;51.522;7.020;2022-10-28T03:54:28;19.00;99.90
31639;DHT22;18248;51.522;7.020;2022-10-28T03:57:31;19.00;99.90
31639;DHT22;18248;51.522;7.020;2022-10-28T04:00:29;18.90;99.90
31639;DHT22;18248;51.522;7.020;2022-10-28T04:03:28;18.80;99.90
31639;DHT22;18248;51.522;7.020;2022-10-28T04:06:26;18.80;99.90
31639;DHT22;18248;51.522;7.020;2022-10-28T04:09:25;18.70;99.90
31639;DHT22;18248;51.522;7.020;2022-10-28T04:12:23;18.70;99.90
31639;DHT22;18248;51.522;7.020;2022-10-28T04:15:22;18.70;99.90
31639;DHT22;18248;51.522;7.020;2022-10-28T04:18:20;18.70;99.90
31639;DHT22;18248;51.522;7.020;2022-10-28T04:21:19;18.70;99.90
31639;DHT22;18248;51.522;7.020;2022-10-28T04:24:18;18.70;99.90
31639;DHT22;18248;51.522;7.020;2022-10-28T04:27:16;18.70;99.90
31639;DHT22;18248;51.522;7.020;2022-10-28T04:30:15;18.70;99.90
31639;DHT22;18248;51.522;7.020;2022-10-28T04:33:13;18.70;99.90
31639;DHT22;18248;51.522;7.020;2022-10-28T04:36:12;18.60;99.90
31639;DHT22;18248;51.522;7.020;2022-10-28T04:39:11;18.60;99.90
31639;DHT22;18248;51.522;7.020;2022-10-28T04:42:09;18.50;99.90
31639;DHT22;18248;51.522;7.020;2022-10-28T04:45:10;18.50;99.90
31639;DHT22;18248;51.522;7.020;2022-10-28T04:48:09;18.40;99.90
31639;DHT22;18248;51.522;7.020;2022-10-28T04:51:08;18.30;99.90
31639;DHT22;18248;51.522;7.020;2022-10-28T04:54:06;18.30;99.90
31639;DHT22;18248;51.522;7.020;2022-10-28T04:57:05;18.30;99.90
31639;DHT22;18248;51.522;7.020;2022-10-28T05:00:04;18.20;99.90
31639;DHT22;18248;51.522;7.020;2022-10-28T05:03:02;18.20;99.90
31639;DHT22;18248;51.522;7.020;2022-10-28T05:06:01;18.20;99.90
31639;DHT22;18248;51.522;7.020;2022-10-28T05:09:00;18.10;99.90
31639;DHT22;18248;51.522;7.020;2022-10-28T05:11:58;18.10;99.90
31639;DHT22;18248;51.522;7.020;2022-10-28T05:14:58;18.00;99.90
31639;DHT22;18248;51.522;7.020;2022-10-28T05:17:57;17.90;99.90
31639;DHT22;18248;51.522;7.020;2022-10-28T05:20:55;18.00;99.90
31639;DHT22;18248;51.522;7.020;2022-10-28T05:23:54;18.00;99.90
31639;DHT22;18248;51.522;7.020;2022-10-28T05:26:52;18.00;99.90
31639;DHT22;18248;51.522;7.020;2022-10-28T05:29:51;18.10;99.90
31639;DHT22;18248;51.522;7.020;2022-10-28T05:32:49;18.10;99.90
31639;DHT22;18248;51.522;7.020;2022-10-28T05:35:48;18.10;99.90
31639;DHT22;18248;51.522;7.020;2022-10-28T05:38:47;18.10;99.90
31639;DHT22;18248;51.522;7.020;2022-10-28T05:41:46;18.20;99.90
31639;DHT22;18248;51.522;7.020;2022-10-28T05:44:45;18.30;99.90
31639;DHT22;18248;51.522;7.020;2022-10-28T05:47:45;18.30;99.90
31639;DHT22;18248;51.522;7.020;2022-10-28T05:50:44;18.30;99.90
31639;DHT22;18248;51.522;7.020;2022-10-28T05:53:42;18.30;99.90
31639;DHT22;18248;51.522;7.020;2022-10-28T05:56:43;18.40;99.90
31639;DHT22;18248;51.522;7.020;2022-10-28T05:59:41;18.30;99.90
31639;DHT22;18248;51.522;7.020;2022-10-28T06:02:40;18.30;99.90
31639;DHT22;18248;51.522;7.020;2022-10-28T06:05:42;18.30;99.90
31639;DHT22;18248;51.522;7.020;2022-10-28T06:08:41;18.30;99.90
31639;DHT22;18248;51.522;7.020;2022-10-28T06:11:39;18.40;99.90
31639;DHT22;18248;51.522;7.020;2022-10-28T06:14:39;18.40;99.90
31639;DHT22;18248;51.522;7.020;2022-10-28T06:17:38;18.40;99.90
31639;DHT22;18248;51.522;7.020;2022-10-28T06:20:36;18.40;99.90
31639;DHT22;18248;51.522;7.020;2022-10-28T06:23:35;18.40;99.90
31639;DHT22;18248;51.522;7.020;2022-10-28T06:26:33;18.30;99.90
31639;DHT22;18248;51.522;7.020;2022-10-28T06:29:33;18.30;99.90
31639;DHT22;18248;51.522;7.020;2022-10-28T06:32:31;18.30;99.90
31639;DHT22;18248;51.522;7.020;2022-10-28T06:35:30;18.20;99.90
31639;DHT22;18248;51.522;7.020;2022-10-28T06:38:28;18.20;99.90
31639;DHT22;18248;51.522;7.020;2022-10-28T06:41:27;18.10;99.90
31639;DHT22;18248;51.522;7.020;2022-10-28T06:44:25;18.20;99.90
31639;DHT22;18248;51.522;7.020;2022-10-28T06:47:24;18.10;99.90
31639;DHT22;18248;51.522;7.020;2022-10-28T06:50:23;18.20;99.90
31639;DHT22;18248;51.522;7.020;2022-10-28T06:53:23;18.30;99.90
31639;DHT22;18248;51.522;7.020;2022-10-28T06:56:21;18.30;99.90
31639;DHT22;18248;51.522;7.020;2022-10-28T06:59:20;18.30;99.90
31639;DHT22;18248;51.522;7.020;2022-10-28T07:02:18;18.30;99.90
31639;DHT22;18248;51.522;7.020;2022-10-28T07:05:19;18.30;99.90
31639;DHT22;18248;51.522;7.020;2022-10-28T07:08:18;18.30;99.90
31639;DHT22;18248;51.522;7.020;2022-10-28T07:11:16;18.40;99.90
31639;DHT22;18248;51.522;7.020;2022-10-28T07:14:16;18.40;99.90
31639;DHT22;18248;51.522;7.020;2022-10-28T07:17:14;18.50;99.90
31639;DHT22;18248;51.522;7.020;2022-10-28T07:20:13;18.60;99.90
31639;DHT22;18248;51.522;7.020;2022-10-28T07:23:12;18.60;99.90
31639;DHT22;18248;51.522;7.020;2022-10-28T07:26:10;18.80;99.90
31639;DHT22;18248;51.522;7.020;2022-10-28T07:29:09;18.80;99.90
31639;DHT22;18248;51.522;7.020;2022-10-28T07:32:07;19.00;99.90
31639;DHT22;18248;51.522;7.020;2022-10-28T07:35:06;19.10;99.90
31639;DHT22;18248;51.522;7.020;2022-10-28T07:38:05;19.10;99.90
31639;DHT22;18248;51.522;7.020;2022-10-28T07:41:05;19.20;99.90
31639;DHT22;18248;51.522;7.020;2022-10-28T07:44:04;19.20;99.90
31639;DHT22;18248;51.522;7.020;2022-10-28T07:47:04;19.30;99.90
31639;DHT22;18248;51.522;7.020;2022-10-28T07:50:03;19.30;99.90
31639;DHT22;18248;51.522;7.020;2022-10-28T07:53:02;19.40;99.90
31639;DHT22;18248;51.522;7.020;2022-10-28T07:56:04;19.50;99.90
31639;DHT22;18248;51.522;7.020;2022-10-28T07:59:04;19.50;99.90
31639;DHT22;18248;51.522;7.020;2022-10-28T08:02:04;19.60;99.90
31639;DHT22;18248;51.522;7.020;2022-10-28T08:05:03;19.60;99.90
31639;DHT22;18248;51.522;7.020;2022-10-28T08:08:02;19.70;99.90
31639;DHT22;18248;51.522;7.020;2022-10-28T08:11:27;19.70;99.90
31639;DHT22;18248;51.522;7.020;2022-10-28T08:14:26;19.70;99.90
31639;DHT22;18248;51.522;7.020;2022-10-28T08:17:24;19.70;99.90
31639;DHT22;18248;51.522;7.020;2022-10-28T08:20:23;19.70;99.90
31639;DHT22;18248;51.522;7.020;2022-10-28T08:23:21;19.70;99.90
31639;DHT22;18248;51.522;7.020;2022-10-28T08:26:20;19.70;99.90
31639;DHT22;18248;51.522;7.020;2022-10-28T08:29:19;19.80;99.90
31639;DHT22;18248;51.522;7.020;2022-10-28T08:32:19;19.80;99.90
31639;DHT22;18248;51.522;7.020;2022-10-28T08:35:17;19.80;99.90
31639;DHT22;18248;51.522;7.020;2022-10-28T08:38:16;19.90;99.90
31639;DHT22;18248;51.522;7.020;2022-10-28T08:48:10;20.00;99.90
31639;DHT22;18248;51.522;7.020;2022-10-28T08:51:32;20.10;99.90
31639;DHT22;18248;51.522;7.020;2022-10-28T08:55:16;20.10;99.90
31639;DHT22;18248;51.522;7.020;2022-10-28T08:58:17;20.20;99.90
31639;DHT22;18248;51.522;7.020;2022-10-28T09:01:26;20.30;99.90
31639;DHT22;18248;51.522;7.020;2022-10-28T09:04:41;20.40;99.90
31639;DHT22;18248;51.522;7.020;2022-10-28T09:07:41;20.50;99.90
31639;DHT22;18248;51.522;7.020;2022-10-28T09:14:50;20.60;99.90
31639;DHT22;18248;51.522;7.020;2022-10-28T09:17:54;20.70;99.90
31639;DHT22;18248;51.522;7.020;2022-10-28T09:23:57;20.90;99.90
31639;DHT22;18248;51.522;7.020;2022-10-28T09:27:07;21.10;99.90
31639;DHT22;18248;51.522;7.020;2022-10-28T09:30:34;21.20;99.90
31639;DHT22;18248;51.522;7.020;2022-10-28T09:34:04;21.40;99.90
31639;DHT22;18248;51.522;7.020;2022-10-28T09:37:12;21.60;99.90
31639;DHT22;18248;51.522;7.020;2022-10-28T09:40:20;21.80;99.90
31639;DHT22;18248;51.522;7.020;2022-10-28T09:43:28;22.00;99.90
31639;DHT22;18248;51.522;7.020;2022-10-28T09:46:29;22.10;99.90
31639;DHT22;18248;51.522;7.020;2022-10-28T09:49:34;22.40;99.90
31639;DHT22;18248;51.522;7.020;2022-10-28T09:52:41;22.50;99.90
31639;DHT22;18248;51.522;7.020;2022-10-28T09:55:41;22.60;99.90
31639;DHT22;18248;51.522;7.020;2022-10-28T09:58:44;22.70;99.90
31639;DHT22;18248;51.522;7.020;2022-10-28T10:01:45;22.70;99.90
31639;DHT22;18248;51.522;7.020;2022-10-28T10:04:45;22.80;99.90
31639;DHT22;18248;51.522;7.020;2022-10-28T10:08:05;22.80;99.90
31639;DHT22;18248;51.522;7.020;2022-10-28T10:11:10;23.00;99.90
31639;DHT22;18248;51.522;7.020;2022-10-28T10:14:14;23.10;99.90
31639;DHT22;18248;51.522;7.020;2022-10-28T10:17:15;23.30;99.90
31639;DHT22;18248;51.522;7.020;2022-10-28T10:20:19;23.40;99.90
31639;DHT22;18248;51.522;7.020;2022-10-28T10:26:22;23.60;99.90
31639;DHT22;18248;51.522;7.020;2022-10-28T10:29:21;23.60;99.90
31639;DHT22;18248;51.522;7.020;2022-10-28T10:32:29;23.70;99.90
31639;DHT22;18248;51.522;7.020;2022-10-28T10:35:30;23.70;99.90
31639;DHT22;18248;51.522;7.020;2022-10-28T10:38:31;23.80;99.90
31639;DHT22;18248;51.522;7.020;2022-10-28T10:41:38;24.00;99.90
31639;DHT22;18248;51.522;7.020;2022-10-28T10:44:37;24.10;99.90
31639;DHT22;18248;51.522;7.020;2022-10-28T10:47:35;24.20;99.90
31639;DHT22;18248;51.522;7.020;2022-10-28T10:50:34;24.20;99.90
31639;DHT22;18248;51.522;7.020;2022-10-28T10:53:36;24.10;99.90
31639;DHT22;18248;51.522;7.020;2022-10-28T10:56:35;24.20;99.90
31639;DHT22;18248;51.522;7.020;2022-10-28T10:59:35;24.20;99.90
31639;DHT22;18248;51.522;7.020;2022-10-28T11:02:37;24.30;99.90
31639;DHT22;18248;51.522;7.020;2022-10-28T11:05:47;24.40;99.90
31639;DHT22;18248;51.522;7.020;2022-10-28T11:08:46;24.50;99.90
31639;DHT22;18248;51.522;7.020;2022-10-28T11:11:44;24.60;99.90
31639;DHT22;18248;51.522;7.020;2022-10-28T11:14:58;24.60;99.90
31639;DHT22;18248;51.522;7.020;2022-10-28T11:18:19;24.50;99.90
31639;DHT22;18248;51.522;7.020;2022-10-28T11:21:54;24.50;99.90
31639;DHT22;18248;51.522;7.020;2022-10-28T11:45:01;24.80;99.90
31639;DHT22;18248;51.522;7.020;2022-10-28T11:48:09;24.80;99.90
31639;DHT22;18248;51.522;7.020;2022-10-28T11:54:27;24.70;99.90
31639;DHT22;18248;51.522;7.020;2022-10-28T12:11:10;25.20;99.90
31639;DHT22;18248;51.522;7.020;2022-10-28T12:14:26;25.40;99.90
31639;DHT22;18248;51.522;7.020;2022-10-28T12:21:01;25.60;99.90
31639;DHT22;18248;51.522;7.020;2022-10-28T12:24:05;25.60;99.90
31639;DHT22;18248;51.522;7.020;2022-10-28T12:27:15;25.70;99.90
31639;DHT22;18248;51.522;7.020;2022-10-28T12:30:29;25.90;99.90
31639;DHT22;18248;51.522;7.020;2022-10-28T12:33:38;25.80;99.90
31639;DHT22;18248;51.522;7.020;2022-10-28T12:36:52;25.70;99.90
31639;DHT22;18248;51.522;7.020;2022-10-28T12:40:16;25.70;99.90
31639;DHT22;18248;51.522;7.020;2022-10-28T12:43:35;25.70;99.90
31639;DHT22;18248;51.522;7.020;2022-10-28T12:57:00;25.80;99.90
31639;DHT22;18248;51.522;7.020;2022-10-28T13:00:05;25.80;99.90
31639;DHT22;18248;51.522;7.020;2022-10-28T13:03:09;25.80;99.90
31639;DHT22;18248;51.522;7.020;2022-10-28T13:19:42;25.60;99.90
31639;DHT22;18248;51.522;7.020;2022-10-28T13:26:34;25.40;99.90
31639;DHT22;18248;51.522;7.020;2022-10-28T13:29:37;25.40;99.90
31639;DHT22;18248;51.522;7.020;2022-10-28T13:32:39;25.40;99.90
31639;DHT22;18248;51.522;7.020;2022-10-28T13:35:38;25.30;99.90
31639;DHT22;18248;51.522;7.020;2022-10-28T13:38:39;25.30;99.90
31639;DHT22;18248;51.522;7.020;2022-10-28T13:41:39;25.30;99.90
31639;DHT22;18248;51.522;7.020;2022-10-28T13:44:55;25.30;99.90
31639;DHT22;18248;51.522;7.020;2022-10-28T13:51:31;25.20;99.90
31639;DHT22;18248;51.522;7.020;2022-10-28T13:57:45;25.10;99.90
31639;DHT22;18248;51.522;7.020;2022-10-28T14:00:44;25.10;99.90
31639;DHT22;18248;51.522;7.020;2022-10-28T14:03:50;25.10;99.90
31639;DHT22;18248;51.522;7.020;2022-10-28T14:06:49;25.10;99.90
31639;DHT22;18248;51.522;7.020;2022-10-28T14:09:51;25.10;99.90
31639;DHT22;18248;51.522;7.020;2022-10-28T14:13:06;25.00;99.90
31639;DHT22;18248;51.522;7.020;2022-10-28T14:16:25;25.00;99.90
31639;DHT22;18248;51.522;7.020;2022-10-28T14:19:27;24.90;99.90
31639;DHT22;18248;51.522;7.020;2022-10-28T14:22:31;24.80;99.90
31639;DHT22;18248;51.522;7.020;2022-10-28T14:31:43;24.70;99.90
31639;DHT22;18248;51.522;7.020;2022-10-28T14:34:43;24.80;99.90
31639;DHT22;18248;51.522;7.020;2022-10-28T14:45:01;24.60;99.90
31639;DHT22;18248;51.522;7.020;2022-10-28T14:48:22;24.60;99.90
31639;DHT22;18248;51.522;7.020;2022-10-28T14:51:36;24.50;99.90
31639;DHT22;18248;51.522;7.020;2022-10-28T14:54:54;24.50;99.90
31639;DHT22;18248;51.522;7.020;2022-10-28T14:58:11;24.40;99.90
31639;DHT22;18248;51.522;7.020;2022-10-28T15:04:16;24.30;99.90
31639;DHT22;18248;51.522;7.020;2022-10-28T15:07:17;24.30;99.90
31639;DHT22;18248;51.522;7.020;2022-10-28T15:10:18;24.20;99.90
31639;DHT22;18248;51.522;7.020;2022-10-28T15:13:19;24.10;99.90
31639;DHT22;18248;51.522;7.020;2022-10-28T15:16:24;24.10;99.90
31639;DHT22;18248;51.522;7.020;2022-10-28T15:19:25;24.00;99.90
31639;DHT22;18248;51.522;7.020;2022-10-28T15:22:30;24.00;99.90
31639;DHT22;18248;51.522;7.020;2022-10-28T15:25:30;24.00;99.90
31639;DHT22;18248;51.522;7.020;2022-10-28T15:28:29;23.90;99.90
31639;DHT22;18248;51.522;7.020;2022-10-28T15:31:27;23.80;99.90
31639;DHT22;18248;51.522;7.020;2022-10-28T15:34:29;23.80;99.90
31639;DHT22;18248;51.522;7.020;2022-10-28T15:37:29;23.70;99.90
31639;DHT22;18248;51.522;7.020;2022-10-28T15:40:34;23.60;99.90
31639;DHT22;18248;51.522;7.020;2022-10-28T15:43:33;23.50;99.90
31639;DHT22;18248;51.522;7.020;2022-10-28T15:46:32;23.40;99.90
31639;DHT22;18248;51.522;7.020;2022-10-28T15:49:37;23.30;99.90
31639;DHT22;18248;51.522;7.020;2022-10-28T15:52:50;23.20;99.90
31639;DHT22;18248;51.522;7.020;2022-10-28T15:56:16;23.10;99.90
31639;DHT22;18248;51.522;7.020;2022-10-28T15:59:23;23.10;99.90
31639;DHT22;18248;51.522;7.020;2022-10-28T16:02:41;23.00;99.90
31639;DHT22;18248;51.522;7.020;2022-10-28T16:08:38;22.90;99.90
31639;DHT22;18248;51.522;7.020;2022-10-28T16:11:40;22.80;99.90
31639;DHT22;18248;51.522;7.020;2022-10-28T16:14:45;22.80;99.90
31639;DHT22;18248;51.522;7.020;2022-10-28T16:17:46;22.80;99.90
31639;DHT22;18248;51.522;7.020;2022-10-28T16:20:44;22.70;99.90
31639;DHT22;18248;51.522;7.020;2022-10-28T16:23:44;22.70;99.90
31639;DHT22;18248;51.522;7.020;2022-10-28T16:26:47;22.70;99.90
31639;DHT22;18248;51.522;7.020;2022-10-28T16:29:46;22.70;99.90
31639;DHT22;18248;51.522;7.020;2022-10-28T16:32:47;22.70;99.90
31639;DHT22;18248;51.522;7.020;2022-10-28T16:35:49;22.60;99.90
31639;DHT22;18248;51.522;7.020;2022-10-28T16:38:47;22.60;99.90
31639;DHT22;18248;51.522;7.020;2022-10-28T16:41:48;22.60;99.90
31639;DHT22;18248;51.522;7.020;2022-10-28T16:44:47;22.50;99.90
31639;DHT22;18248;51.522;7.020;2022-10-28T16:47:46;22.50;99.90
31639;DHT22;18248;51.522;7.020;2022-10-28T16:50:54;22.40;99.90
31639;DHT22;18248;51.522;7.020;2022-10-28T16:53:54;22.30;99.90
31639;DHT22;18248;51.522;7.020;2022-10-28T16:56:52;22.20;99.90
31639;DHT22;18248;51.522;7.020;2022-10-28T16:59:51;22.20;99.90
31639;DHT22;18248;51.522;7.020;2022-10-28T17:02:51;22.20;99.90
31639;DHT22;18248;51.522;7.020;2022-10-28T17:05:51;22.10;99.90
31639;DHT22;18248;51.522;7.020;2022-10-28T17:08:51;22.00;99.90
31639;DHT22;18248;51.522;7.020;2022-10-28T17:11:49;22.00;99.90
31639;DHT22;18248;51.522;7.020;2022-10-28T17:14:48;21.90;99.90
31639;DHT22;18248;51.522;7.020;2022-10-28T17:17:51;21.80;99.90
31639;DHT22;18248;51.522;7.020;2022-10-28T17:20:59;21.70;99.90
31639;DHT22;18248;51.522;7.020;2022-10-28T17:24:00;21.60;99.90
31639;DHT22;18248;51.522;7.020;2022-10-28T17:26:59;21.50;99.90
31639;DHT22;18248;51.522;7.020;2022-10-28T17:29:57;21.40;99.90
31639;DHT22;18248;51.522;7.020;2022-10-28T17:32:56;21.30;99.90
31639;DHT22;18248;51.522;7.020;2022-10-28T17:35:54;21.20;99.90
31639;DHT22;18248;51.522;7.020;2022-10-28T17:38:54;21.20;99.90
31639;DHT22;18248;51.522;7.020;2022-10-28T17:41:53;21.20;99.90
31639;DHT22;18248;51.522;7.020;2022-10-28T17:44:52;21.10;99.90
31639;DHT22;18248;51.522;7.020;2022-10-28T17:47:50;21.10;99.90
31639;DHT22;18248;51.522;7.020;2022-10-28T17:50:55;21.10;99.90
31639;DHT22;18248;51.522;7.020;2022-10-28T17:53:54;21.10;99.90
31639;DHT22;18248;51.522;7.020;2022-10-28T17:56:54;21.00;99.90
31639;DHT22;18248;51.522;7.020;2022-10-28T17:59:55;21.00;99.90
31639;DHT22;18248;51.522;7.020;2022-10-28T18:02:55;21.00;99.90
31639;DHT22;18248;51.522;7.020;2022-10-28T18:05:54;20.90;99.90
31639;DHT22;18248;51.522;7.020;2022-10-28T18:08:53;20.90;99.90
31639;DHT22;18248;51.522;7.020;2022-10-28T18:11:51;20.90;99.90
31639;DHT22;18248;51.522;7.020;2022-10-28T18:14:50;20.80;99.90
31639;DHT22;18248;51.522;7.020;2022-10-28T18:17:49;20.70;99.90
31639;DHT22;18248;51.522;7.020;2022-10-28T18:20:53;20.70;99.90
31639;DHT22;18248;51.522;7.020;2022-10-28T18:23:53;20.70;99.90
31639;DHT22;18248;51.522;7.020;2022-10-28T18:26:53;20.60;99.90
31639;DHT22;18248;51.522;7.020;2022-10-28T18:29:51;20.50;99.90
31639;DHT22;18248;51.522;7.020;2022-10-28T18:32:50;20.40;99.90
31639;DHT22;18248;51.522;7.020;2022-10-28T18:35:50;20.40;99.90
31639;DHT22;18248;51.522;7.020;2022-10-28T18:38:51;20.30;99.90
31639;DHT22;18248;51.522;7.020;2022-10-28T18:41:49;20.30;99.90
31639;DHT22;18248;51.522;7.020;2022-10-28T18:44:48;20.20;99.90
31639;DHT22;18248;51.522;7.020;2022-10-28T18:47:47;20.20;99.90
31639;DHT22;18248;51.522;7.020;2022-10-28T18:50:55;20.10;99.90
31639;DHT22;18248;51.522;7.020;2022-10-28T18:53:54;20.10;99.90
31639;DHT22;18248;51.522;7.020;2022-10-28T18:56:54;20.10;99.90
31639;DHT22;18248;51.522;7.020;2022-10-28T18:59:52;20.10;99.90
31639;DHT22;18248;51.522;7.020;2022-10-28T19:02:51;20.00;99.90
31639;DHT22;18248;51.522;7.020;2022-10-28T19:05:50;19.90;99.90
31639;DHT22;18248;51.522;7.020;2022-10-28T19:08:53;19.90;99.90
31639;DHT22;18248;51.522;7.020;2022-10-28T19:11:52;19.90;99.90
31639;DHT22;18248;51.522;7.020;2022-10-28T19:14:50;19.80;99.90
31639;DHT22;18248;51.522;7.020;2022-10-28T19:17:51;19.80;99.90
31639;DHT22;18248;51.522;7.020;2022-10-28T19:20:51;19.70;99.90
31639;DHT22;18248;51.522;7.020;2022-10-28T19:23:49;19.60;99.90
31639;DHT22;18248;51.522;7.020;2022-10-28T19:26:48;19.60;99.90
31639;DHT22;18248;51.522;7.020;2022-10-28T19:29:46;19.50;99.90
31639;DHT22;18248;51.522;7.020;2022-10-28T19:32:45;19.50;99.90
31639;DHT22;18248;51.522;7.020;2022-10-28T19:35:45;19.40;99.90
31639;DHT22;18248;51.522;7.020;2022-10-28T19:38:46;19.40;99.90
31639;DHT22;18248;51.522;7.020;2022-10-28T19:41:44;19.30;99.90
31639;DHT22;18248;51.522;7.020;2022-10-28T19:44:44;19.30;99.90
31639;DHT22;18248;51.522;7.020;2022-10-28T19:47:44;19.30;99.90
31639;DHT22;18248;51.522;7.020;2022-10-28T19:50:51;19.20;99.90
31639;DHT22;18248;51.522;7.020;2022-10-28T19:53:52;19.20;99.90
31639;DHT22;18248;51.522;7.020;2022-10-28T19:56:51;19.20;99.90
31639;DHT22;18248;51.522;7.020;2022-10-28T19:59:50;19.20;99.90
31639;DHT22;18248;51.522;7.020;2022-10-28T20:02:49;19.20;99.90
31639;DHT22;18248;51.522;7.020;2022-10-28T20:05:47;19.10;99.90
31639;DHT22;18248;51.522;7.020;2022-10-28T20:08:47;19.10;99.90
31639;DHT22;18248;51.522;7.020;2022-10-28T20:11:46;19.00;99.90
31639;DHT22;18248;51.522;7.020;2022-10-28T20:14:45;19.10;99.90
31639;DHT22;18248;51.522;7.020;2022-10-28T20:17:43;19.10;99.90
31639;DHT22;18248;51.522;7.020;2022-10-28T20:20:42;19.10;99.90
31639;DHT22;18248;51.522;7.020;2022-10-28T20:23:42;19.10;99.90
31639;DHT22;18248;51.522;7.020;2022-10-28T20:26:40;19.10;99.90
31639;DHT22;18248;51.522;7.020;2022-10-28T20:29:40;19.20;99.90
31639;DHT22;18248;51.522;7.020;2022-10-28T20:32:39;19.20;99.90
31639;DHT22;18248;51.522;7.020;2022-10-28T20:35:40;19.10;99.90
31639;DHT22;18248;51.522;7.020;2022-10-28T20:38:40;19.10;99.90
31639;DHT22;18248;51.522;7.020;2022-10-28T20:41:41;19.20;99.90
31639;DHT22;18248;51.522;7.020;2022-10-28T20:44:40;19.20;99.90
31639;DHT22;18248;51.522;7.020;2022-10-28T20:47:38;19.10;99.90
31639;DHT22;18248;51.522;7.020;2022-10-28T20:50:37;19.10;99.90
31639;DHT22;18248;51.522;7.020;2022-10-28T20:53:36;19.10;99.90
31639;DHT22;18248;51.522;7.020;2022-10-28T20:56:36;19.00;99.90
31639;DHT22;18248;51.522;7.020;2022-10-28T20:59:35;19.00;99.90
31639;DHT22;18248;51.522;7.020;2022-10-28T21:02:35;19.00;99.90
31639;DHT22;18248;51.522;7.020;2022-10-28T21:05:33;19.00;99.90
31639;DHT22;18248;51.522;7.020;2022-10-28T21:08:32;18.90;99.90
31639;DHT22;18248;51.522;7.020;2022-10-28T21:11:30;18.90;99.90
31639;DHT22;18248;51.522;7.020;2022-10-28T21:14:30;18.90;99.90
31639;DHT22;18248;51.522;7.020;2022-10-28T21:17:29;18.80;99.90
31639;DHT22;18248;51.522;7.020;2022-10-28T21:20:28;18.70;99.90
31639;DHT22;18248;51.522;7.020;2022-10-28T21:23:28;18.70;99.90